Time;durP1;ratioP1;P1;durP2;ratioP2;P2;SDS_P1;SDS_P2;PMS_P1;PMS_P2;Temp;Humidity;BMP_temperature;BMP_pressure;BME280_temperature;BME280_humidity;BME280_pressure;Samples;Min_cycle;Max_cycle;Signal;HPM_P1;HPM_P2
2022/08/24 00:01:12;;;;;;;10.40;4.78;;;;;;;;;;6150527;23;20025;-56
2022/08/24 00:04:06;;;;;;;14.00;5.25;;;;;;;;;;6150630;23;20080;-56
2022/08/24 00:06:54;;;;;;;8.00;4.88;;;;;;;;;;6150592;23;20196;-56
2022/08/24 00:09:54;;;;;;;11.80;5.30;;;;;;;;;;6150663;23;20086;-56
2022/08/24 00:12:42;;;;;;;9.60;5.57;;;;;;;;;;6150148;23;20038;-61
2022/08/24 00:15:34;;;;;;;11.88;5.20;;;;;;;;;;6150154;23;20486;-49
2022/08/24 00:18:22;;;;;;;8.95;4.75;;;;;;;;;;6149734;23;20025;-47
2022/08/24 00:21:24;;;;;;;10.02;4.97;;;;;;;;;;6149716;23;20017;-47
2022/08/24 00:24:10;;;;;;;7.57;4.80;;;;;;;;;;6148965;23;20029;-48
2022/08/24 00:27:11;;;;;;;8.50;4.80;;;;;;;;;;6148365;23;20030;-45
2022/08/24 00:29:58;;;;;;;12.05;5.18;;;;;;;;;;6150228;23;20084;-52
2022/08/24 00:32:53;;;;;;;9.18;5.15;;;;;;;;;;6149481;23;20367;-57
2022/08/24 00:35:39;;;;;;;13.18;5.07;;;;;;;;;;6149642;23;20025;-45
2022/08/24 00:38:34;;;;;;;10.63;5.40;;;;;;;;;;6150102;23;20088;-53
2022/08/24 00:41:21;;;;;;;10.50;4.43;;;;;;;;;;6149320;23;20025;-51
2022/08/24 00:44:22;;;;;;;8.82;4.70;;;;;;;;;;6147377;23;20021;-53
2022/08/24 00:47:21;;;;;;;9.00;5.30;;;;;;;;;;6149226;23;20440;-51
2022/08/24 00:50:22;;;;;;;8.20;4.80;;;;;;;;;;6150025;23;20060;-57
2022/08/24 00:53:15;;;;;;;8.15;4.70;;;;;;;;;;6149615;23;20365;-65
2022/08/24 00:56:09;;;;;;;;;;;;;;;;;;6149260;23;20064;-56
2022/08/24 00:58:59;;;;;;;13.23;5.35;;;;;;;;;;6149853;23;19940;-55
2022/08/24 01:01:53;;;;;;;11.73;5.05;;;;;;;;;;6150431;23;20029;-54
2022/08/24 01:04:47;;;;;;;10.57;5.65;;;;;;;;;;6149620;23;20025;-54
2022/08/24 01:07:41;;;;;;;;;;;;;;;;;;6150958;23;20080;-53
2022/08/24 01:10:33;;;;;;;9.55;5.30;;;;;;;;;;6149928;23;20371;-56
2022/08/24 01:13:26;;;;;;;7.72;5.28;;;;;;;;;;6149475;23;20032;-55
2022/08/24 01:16:14;;;;;;;10.35;5.22;;;;;;;;;;6150169;23;20213;-55
2022/08/24 01:19:27;;;;;;;8.90;4.97;;;;;;;;;;6148459;23;20617;-55
2022/08/24 01:22:36;;;;;;;11.82;4.95;;;;;;;;;;6149528;23;20096;-56
2022/08/24 01:25:32;;;;;;;9.70;4.90;;;;;;;;;;6148371;23;20021;-54
2022/08/24 01:28:20;;;;;;;7.72;4.85;;;;;;;;;;6148623;23;20454;-65
2022/08/24 01:31:15;;;;;;;7.85;4.82;;;;;;;;;;6150011;23;20045;-61
2022/08/24 01:34:03;;;;;;;10.73;5.07;;;;;;;;;;6149521;23;20018;-51
2022/08/24 01:36:59;;;;;;;7.97;5.57;;;;;;;;;;6151037;23;20022;-52
2022/08/24 01:39:46;;;;;;;8.00;5.60;;;;;;;;;;6151250;23;20608;-52
2022/08/24 01:42:39;;;;;;;11.60;6.50;;;;;;;;;;6150871;23;20021;-48
2022/08/24 01:45:33;;;;;;;13.70;5.63;;;;;;;;;;6150083;23;20025;-53
2022/08/24 01:48:27;;;;;;;8.30;5.15;;;;;;;;;;6150732;23;20029;-55
2022/08/24 01:51:14;;;;;;;8.93;4.20;;;;;;;;;;6150086;23;20583;-49
2022/08/24 01:54:09;;;;;;;7.18;4.43;;;;;;;;;;6150712;23;20025;-48
2022/08/24 01:56:56;;;;;;;7.03;3.78;;;;;;;;;;6150110;23;20076;-49
2022/08/24 01:59:49;;;;;;;7.28;4.10;;;;;;;;;;6152289;23;20026;-48
2022/08/24 02:02:37;;;;;;;8.50;4.30;;;;;;;;;;6150340;23;20022;-47
2022/08/24 02:05:30;;;;;;;8.35;4.10;;;;;;;;;;6150803;23;20688;-46
2022/08/24 02:08:19;;;;;;;10.30;5.28;;;;;;;;;;6152191;23;20017;-65
2022/08/24 02:11:12;;;;;;;10.73;5.25;;;;;;;;;;6151361;23;20390;-61
2022/08/24 02:14:00;;;;;;;11.90;5.43;;;;;;;;;;6151498;23;20076;-61
2022/08/24 02:16:57;;;;;;;7.70;5.45;;;;;;;;;;6150920;23;20101;-61
2022/08/24 02:19:45;;;;;;;13.20;5.90;;;;;;;;;;6150975;23;20029;-61
2022/08/24 02:22:38;;;;;;;11.23;5.43;;;;;;;;;;6151536;23;20017;-61
2022/08/24 02:25:29;;;;;;;7.75;5.07;;;;;;;;;;6149903;23;20534;-66
2022/08/24 02:28:20;;;;;;;8.80;5.40;;;;;;;;;;6151014;23;20359;-53
2022/08/24 02:31:08;;;;;;;7.18;4.72;;;;;;;;;;6151869;23;20064;-58
2022/08/24 02:34:02;;;;;;;11.20;5.22;;;;;;;;;;6150461;23;20025;-58
2022/08/24 02:36:51;;;;;;;11.18;5.45;;;;;;;;;;6150593;23;20121;-58
2022/08/24 02:39:43;;;;;;;7.05;4.30;;;;;;;;;;6151169;23;20021;-58
2022/08/24 02:42:30;;;;;;;7.65;5.00;;;;;;;;;;6150699;23;20018;-58
2022/08/24 02:45:38;;;;;;;9.85;4.68;;;;;;;;;;6147205;23;20088;-55
2022/08/24 02:48:39;;;;;;;7.43;5.40;;;;;;;;;;6150759;23;20032;-55
2022/08/24 02:51:40;;;;;;;8.85;5.53;;;;;;;;;;6150330;23;20108;-56
2022/08/24 02:54:25;;;;;;;10.00;5.47;;;;;;;;;;6149788;23;20021;-56
2022/08/24 02:57:19;;;;;;;7.75;5.30;;;;;;;;;;6150741;23;20064;-56
2022/08/24 03:00:09;;;;;;;9.80;6.68;;;;;;;;;;6151201;23;20272;-54
2022/08/24 03:03:02;;;;;;;9.65;5.82;;;;;;;;;;6149890;23;20068;-54
2022/08/24 03:05:49;;;;;;;8.75;5.93;;;;;;;;;;6151040;23;20030;-61
2022/08/24 03:08:44;;;;;;;10.38;5.93;;;;;;;;;;6151667;23;20029;-58
2022/08/24 03:11:30;;;;;;;11.80;5.82;;;;;;;;;;6149721;23;20494;-58
2022/08/24 03:14:24;;;;;;;10.05;5.40;;;;;;;;;;6150912;23;20026;-57
2022/08/24 03:17:12;;;;;;;11.18;5.70;;;;;;;;;;6150774;23;20025;-58
2022/08/24 03:20:10;;;;;;;8.45;5.68;;;;;;;;;;6150517;23;20022;-58
2022/08/24 03:22:57;;;;;;;9.50;5.38;;;;;;;;;;6150862;23;20021;-66
2022/08/24 03:25:51;;;;;;;6.13;4.30;;;;;;;;;;6151006;23;20083;-52
2022/08/24 03:28:39;;;;;;;9.23;5.53;;;;;;;;;;6150323;23;20456;-51
2022/08/24 03:31:33;;;;;;;8.35;6.20;;;;;;;;;;6150565;23;20025;-50
2022/08/24 03:34:20;;;;;;;9.18;5.72;;;;;;;;;;6151513;23;20025;-49
2022/08/24 03:37:13;;;;;;;5.80;3.90;;;;;;;;;;6150704;23;20060;-48
2022/08/24 03:40:00;;;;;;;8.30;3.72;;;;;;;;;;6150664;23;20112;-50
2022/08/24 03:42:54;;;;;;;6.03;3.97;;;;;;;;;;6149318;23;20017;-46
2022/08/24 03:45:48;;;;;;;6.47;4.18;;;;;;;;;;6149695;23;20069;-46
2022/08/24 03:48:43;;;;;;;8.98;4.25;;;;;;;;;;6150431;23;20063;-50
2022/08/24 03:51:29;;;;;;;9.60;5.68;;;;;;;;;;6150430;23;20077;-51
2022/08/24 03:54:22;;;;;;;7.55;5.57;;;;;;;;;;6149522;23;20506;-47
2022/08/24 03:57:09;;;;;;;11.73;5.80;;;;;;;;;;6148173;23;20060;-50
2022/08/24 04:00:06;;;;;;;8.00;4.88;;;;;;;;;;6150003;23;20022;-52
2022/08/24 04:02:53;;;;;;;8.75;4.75;;;;;;;;;;6150429;23;20057;-51
2022/08/24 04:05:46;;;;;;;9.52;5.53;;;;;;;;;;6150086;23;20033;-49
2022/08/24 04:08:34;;;;;;;7.85;6.03;;;;;;;;;;6150929;23;20497;-53
2022/08/24 04:11:29;;;;;;;9.73;5.45;;;;;;;;;;6150952;23;20055;-48
2022/08/24 04:14:18;;;;;;;11.20;5.97;;;;;;;;;;6150941;23;20029;-50
2022/08/24 04:17:12;;;;;;;8.05;6.50;;;;;;;;;;6148965;23;20026;-53
2022/08/24 04:19:59;;;;;;;16.67;6.50;;;;;;;;;;6149740;23;20474;-54
2022/08/24 04:22:53;;;;;;;12.80;6.90;;;;;;;;;;6148591;23;20049;-47
2022/08/24 04:25:41;;;;;;;7.95;6.03;;;;;;;;;;6150461;23;20022;-51
2022/08/24 04:28:34;;;;;;;8.50;5.47;;;;;;;;;;6149947;23;20347;-56
2022/08/24 04:31:22;;;;;;;10.65;5.75;;;;;;;;;;6149528;23;20049;-56
2022/08/24 04:34:17;;;;;;;8.65;6.35;;;;;;;;;;6150042;23;20017;-54
2022/08/24 04:37:03;;;;;;;4.40;3.97;;;;;;;;;;6150029;23;20076;-56
2022/08/24 04:39:57;;;;;;;8.10;5.45;;;;;;;;;;6150401;23;20025;-56
2022/08/24 04:42:45;;;;;;;8.60;5.05;;;;;;;;;;6149119;23;20028;-47
2022/08/24 04:45:53;;;;;;;8.77;5.80;;;;;;;;;;6145791;23;20053;-49
2022/08/24 04:48:41;;;;;;;6.00;5.40;;;;;;;;;;6150720;23;20026;-54
2022/08/24 04:51:34;;;;;;;9.38;5.80;;;;;;;;;;6149486;23;20494;-53
2022/08/24 04:54:21;;;;;;;7.07;4.88;;;;;;;;;;6149333;23;20029;-48
2022/08/24 04:57:15;;;;;;;8.82;5.60;;;;;;;;;;6149781;23;20104;-49
2022/08/24 05:00:03;;;;;;;13.02;6.28;;;;;;;;;;6146758;23;20025;-55
2022/08/24 05:02:57;;;;;;;9.43;6.22;;;;;;;;;;6149899;23;20048;-57
2022/08/24 05:05:46;;;;;;;12.07;6.40;;;;;;;;;;6148089;23;20062;-59
2022/08/24 05:08:41;;;;;;;9.50;5.45;;;;;;;;;;6149135;23;20030;-59
2022/08/24 05:11:28;;;;;;;9.13;6.30;;;;;;;;;;6151046;23;20068;-57
2022/08/24 05:14:21;;;;;;;7.28;5.53;;;;;;;;;;6150817;23;20029;-57
2022/08/24 05:17:08;;;;;;;13.30;5.57;;;;;;;;;;6149864;23;20080;-62
2022/08/24 05:20:03;;;;;;;8.52;5.53;;;;;;;;;;6149933;23;20026;-67
2022/08/24 05:22:51;;;;;;;8.48;4.10;;;;;;;;;;6148833;23;20578;-49
2022/08/24 05:25:44;;;;;;;5.63;3.90;;;;;;;;;;6150238;23;20041;-56
2022/08/24 05:28:34;;;;;;;8.00;3.50;;;;;;;;;;6150206;23;20352;-55
2022/08/24 05:31:26;;;;;;;9.18;3.65;;;;;;;;;;6150326;23;20033;-53
2022/08/24 05:34:13;;;;;;;6.15;4.65;;;;;;;;;;6150366;23;20026;-55
2022/08/24 05:37:09;;;;;;;7.68;4.63;;;;;;;;;;6149799;23;20088;-56
2022/08/24 05:39:54;;;;;;;9.88;5.25;;;;;;;;;;6149181;23;20025;-56
2022/08/24 05:42:49;;;;;;;7.93;4.70;;;;;;;;;;6150057;23;20021;-53
2022/08/24 05:45:43;;;;;;;8.73;4.88;;;;;;;;;;6147796;23;20359;-56
2022/08/24 05:48:43;;;;;;;7.10;5.35;;;;;;;;;;6150322;23;20018;-55
2022/08/24 05:51:30;;;;;;;9.10;5.13;;;;;;;;;;6150744;23;20030;-52
2022/08/24 05:54:25;;;;;;;9.10;5.10;;;;;;;;;;6150258;23;20088;-56
2022/08/24 05:57:12;;;;;;;6.38;5.60;;;;;;;;;;6149294;23;20490;-53
2022/08/24 06:00:08;;;;;;;8.23;5.50;;;;;;;;;;6149494;23;20025;-56
2022/08/24 06:02:54;;;;;;;10.60;5.55;;;;;;;;;;6148344;23;20032;-55
2022/08/24 06:05:47;;;;;;;13.13;4.93;;;;;;;;;;6149975;23;20026;-51
2022/08/24 06:08:35;;;;;;;5.47;4.13;;;;;;;;;;6149511;23;20021;-55
2022/08/24 06:11:34;;;;;;;7.57;4.88;;;;;;;;;;6150221;23;20021;-55
2022/08/24 06:14:21;;;;;;;12.00;4.38;;;;;;;;;;6149771;23;20025;-56
2022/08/24 06:17:15;;;;;;;9.20;4.90;;;;;;;;;;6149702;23;20032;-56
2022/08/24 06:20:03;;;;;;;7.13;4.63;;;;;;;;;;6151396;23;20080;-67
2022/08/24 06:22:57;;;;;;;6.97;4.72;;;;;;;;;;6151068;23;20022;-67
2022/08/24 06:28:42;;;;;;;9.18;5.35;;;;;;;;;;6151413;23;20076;-67
2022/08/24 06:31:29;;;;;;;7.97;4.50;;;;;;;;;;6152097;23;20029;-67
2022/08/24 06:34:24;;;;;;;16.17;5.07;;;;;;;;;;6152305;23;20025;-67
2022/08/24 06:37:11;;;;;;;6.97;4.55;;;;;;;;;;6149977;23;20061;-53
2022/08/24 06:40:05;;;;;;;6.30;3.45;;;;;;;;;;6151783;23;20025;-53
2022/08/24 06:42:52;;;;;;;6.32;3.40;;;;;;;;;;6151251;23;20018;-55
2022/08/24 06:46:00;;;;;;;12.88;4.07;;;;;;;;;;6149644;23;20025;-53
2022/08/24 06:48:59;;;;;;;8.40;3.05;;;;;;;;;;6151976;23;20056;-55
2022/08/24 06:51:52;;;;;;;7.70;3.20;;;;;;;;;;6151219;23;20022;-55
2022/08/24 06:54:40;;;;;;;7.07;2.95;;;;;;;;;;6151835;23;20021;-51
2022/08/24 06:57:33;;;;;;;8.02;2.95;;;;;;;;;;6151808;23;20021;-51
2022/08/24 07:00:21;;;;;;;7.63;2.75;;;;;;;;;;6150841;23;20029;-50
2022/08/24 07:03:16;;;;;;;4.25;2.20;;;;;;;;;;6150754;23;20376;-51
2022/08/24 07:06:03;;;;;;;6.50;2.50;;;;;;;;;;6151161;23;20101;-53
2022/08/24 07:08:58;;;;;;;4.85;2.08;;;;;;;;;;6150370;23;20053;-54
2022/08/24 07:11:47;;;;;;;8.30;2.65;;;;;;;;;;6151475;23;20105;-55
2022/08/24 07:14:39;;;;;;;8.93;2.10;;;;;;;;;;6150554;23;20080;-58
2022/08/24 07:17:26;;;;;;;4.95;2.13;;;;;;;;;;6151807;23;20021;-49
2022/08/24 07:20:20;;;;;;;3.42;1.92;;;;;;;;;;6151298;23;20088;-49
2022/08/24 07:23:08;;;;;;;7.00;2.20;;;;;;;;;;6150350;23;20510;-51
2022/08/24 07:26:10;;;;;;;5.07;2.13;;;;;;;;;;6150698;23;20028;-50
2022/08/24 07:29:03;;;;;;;9.02;2.22;;;;;;;;;;6150300;23;20022;-47
2022/08/24 07:32:12;;;;;;;6.25;2.10;;;;;;;;;;6149400;23;20594;-53
2022/08/24 07:35:00;;;;;;;8.50;2.13;;;;;;;;;;6150474;23;20026;-56
2022/08/24 07:37:55;;;;;;;6.55;2.22;;;;;;;;;;6150543;23;20081;-52
2022/08/24 07:40:46;;;;;;;4.35;1.83;;;;;;;;;;6151242;23;20491;-55
2022/08/24 07:43:58;;;;;;;5.72;1.65;;;;;;;;;;6149945;23;20489;-55
2022/08/24 07:46:52;;;;;;;5.00;1.90;;;;;;;;;;6149086;23;20057;-56
2022/08/24 07:50:05;;;;;;;4.57;1.90;;;;;;;;;;6150556;23;20083;-55
2022/08/24 07:52:52;;;;;;;3.13;1.70;;;;;;;;;;6150803;23;20026;-54
2022/08/24 07:55:55;;;;;;;7.65;1.83;;;;;;;;;;6149803;23;20025;-59
2022/08/24 07:58:42;;;;;;;3.97;1.85;;;;;;;;;;6149178;23;20387;-59
2022/08/24 08:01:39;;;;;;;8.82;1.90;;;;;;;;;;6151416;23;20018;-59
2022/08/24 08:04:26;;;;;;;2.63;1.55;;;;;;;;;;6150499;23;20496;-59
2022/08/24 08:07:20;;;;;;;4.50;1.85;;;;;;;;;;6150276;23;20826;-59
2022/08/24 08:10:09;;;;;;;2.22;1.52;;;;;;;;;;6150972;23;20386;-55
2022/08/24 08:13:03;;;;;;;6.15;1.58;;;;;;;;;;6149512;23;20033;-54
2022/08/24 08:15:50;;;;;;;5.28;1.77;;;;;;;;;;6151771;23;20083;-54
2022/08/24 08:18:44;;;;;;;3.38;1.65;;;;;;;;;;6150482;23;20022;-55
2022/08/24 08:24:43;;;;;;;4.00;1.70;;;;;;;;;;6150758;23;20025;-53
2022/08/24 08:27:31;;;;;;;5.53;2.10;;;;;;;;;;6150656;23;20022;-54
2022/08/24 08:30:40;;;;;;;3.20;1.60;;;;;;;;;;6150918;23;20104;-69
2022/08/24 08:33:27;;;;;;;5.05;2.15;;;;;;;;;;6149794;23;20017;-51
2022/08/24 08:36:21;;;;;;;3.22;1.60;;;;;;;;;;6150732;23;20030;-52
2022/08/24 08:39:10;;;;;;;4.38;1.90;;;;;;;;;;6151021;23;20025;-49
2022/08/24 08:42:13;;;;;;;4.53;1.67;;;;;;;;;;6150018;23;20021;-51
2022/08/24 08:45:05;;;;;;;5.78;1.33;;;;;;;;;;6149229;23;20031;-49
2022/08/24 08:48:05;;;;;;;5.97;1.60;;;;;;;;;;6091485;23;20033;-51
2022/08/24 08:51:12;;;;;;;3.67;1.75;;;;;;;;;;6091871;23;20061;-70
2022/08/24 08:54:19;;;;;;;3.08;1.50;;;;;;;;;;6091136;23;20539;-70
2022/08/24 08:57:27;;;;;;;5.40;1.65;;;;;;;;;;6091201;23;20023;-70
2022/08/24 09:00:24;;;;;;;5.63;1.58;;;;;;;;;;6091396;23;20046;-70
2022/08/24 09:03:31;;;;;;;6.07;1.80;;;;;;;;;;6089946;23;20090;-70
2022/08/24 09:06:34;;;;;;;4.68;1.83;;;;;;;;;;6090770;23;20037;-59
2022/08/24 09:09:42;;;;;;;5.95;1.60;;;;;;;;;;6092181;23;20026;-56
2022/08/24 09:12:46;;;;;;;2.67;1.50;;;;;;;;;;6091225;23;20026;-54
2022/08/24 09:15:33;;;;;;;3.13;1.40;;;;;;;;;;6091010;23;20034;-54
2022/08/24 09:18:33;;;;;;;4.25;1.75;;;;;;;;;;6091656;23;20040;-55
2022/08/24 09:21:23;;;;;;;4.75;1.52;;;;;;;;;;6091280;23;20131;-54
2022/08/24 09:24:39;;;;;;;5.30;1.42;;;;;;;;;;6091127;23;20022;-55
2022/08/24 09:27:39;;;;;;;3.38;1.55;;;;;;;;;;6090833;23;20062;-57
2022/08/24 09:30:59;;;;;;;5.20;1.50;;;;;;;;;;6091249;23;20486;-59
2022/08/24 09:34:05;;;;;;;6.30;1.70;;;;;;;;;;6075378;23;20050;-57
2022/08/24 09:37:09;;;;;;;7.25;1.65;;;;;;;;;;6091942;23;20391;-59
2022/08/24 09:40:01;;;;;;;4.15;1.90;;;;;;;;;;6090887;23;20439;-58
2022/08/24 09:43:07;;;;;;;3.75;1.70;;;;;;;;;;6091284;23;20097;-59
2022/08/24 09:46:02;;;;;;;7.50;1.77;;;;;;;;;;6108187;23;20084;-52
2022/08/24 09:49:05;;;;;;;3.33;1.75;;;;;;;;;;6148905;23;20029;-57
2022/08/24 09:52:01;;;;;;;6.03;1.40;;;;;;;;;;6149416;23;20356;-55
2022/08/24 09:55:03;;;;;;;5.68;1.60;;;;;;;;;;6151284;23;20022;-55
2022/08/24 09:57:58;;;;;;;3.92;1.63;;;;;;;;;;6151092;23;20025;-52
2022/08/24 10:01:04;;;;;;;3.08;1.52;;;;;;;;;;6151847;23;20032;-56
2022/08/24 10:03:59;;;;;;;4.18;2.00;;;;;;;;;;6151199;23;20048;-51
2022/08/24 10:07:03;;;;;;;5.80;1.60;;;;;;;;;;6151981;23;20025;-53
2022/08/24 10:10:08;;;;;;;5.07;1.63;;;;;;;;;;6152010;23;20384;-51
2022/08/24 10:13:10;;;;;;;4.40;1.60;;;;;;;;;;6150887;23;20022;-48
2022/08/24 10:16:01;;;;;;;3.58;1.60;;;;;;;;;;6151708;23;20029;-51
2022/08/24 10:18:56;;;;;;;8.52;1.85;;;;;;;;;;6150898;23;20026;-50
2022/08/24 10:21:46;;;;;;;3.10;1.80;;;;;;;;;;6152117;23;20467;-54
2022/08/24 10:24:53;;;;;;;8.57;2.00;;;;;;;;;;6151925;23;20026;-58
2022/08/24 10:27:55;;;;;;;5.45;2.10;;;;;;;;;;6151358;23;20022;-54
2022/08/24 10:31:03;;;;;;;8.35;2.03;;;;;;;;;;6151808;23;20076;-50
2022/08/24 10:34:09;;;;;;;5.97;2.05;;;;;;;;;;6150847;23;20048;-55
2022/08/24 10:37:02;;;;;;;5.65;2.03;;;;;;;;;;6151695;23;20049;-54
2022/08/24 10:40:09;;;;;;;7.63;1.67;;;;;;;;;;6152030;23;20018;-54
2022/08/24 10:46:09;;;;;;;;;;;;;;;;;;6129877;23;20086;-67
2022/08/24 10:49:02;;;;;;;;;;;;;;;;;;6151143;23;19925;-68
2022/08/24 10:52:09;;;;;;;4.70;1.80;;;;;;;;;;6151313;23;19979;-67
2022/08/24 10:55:15;;;;;;;5.88;2.10;;;;;;;;;;6151176;23;20022;-67
2022/08/24 10:58:02;;;;;;;;;;;;;;;;;;6151280;23;20433;-67
2022/08/24 11:01:18;;;;;;;5.32;1.90;;;;;;;;;;6151494;23;19920;-58
2022/08/24 11:04:05;;;;;;;5.88;1.88;;;;;;;;;;6150432;23;20025;-66
2022/08/24 11:07:08;;;;;;;4.75;1.95;;;;;;;;;;6149706;23;20384;-66
2022/08/24 11:10:00;;;;;;;7.25;2.25;;;;;;;;;;6150581;23;20029;-67
2022/08/24 11:12:54;;;;;;;5.15;1.77;;;;;;;;;;6151090;23;20021;-67
2022/08/24 11:15:52;;;;;;;5.03;1.92;;;;;;;;;;6151451;23;20032;-66
2022/08/24 11:18:51;;;;;;;4.70;1.90;;;;;;;;;;6149726;23;20022;-66
2022/08/24 11:21:44;;;;;;;3.92;1.88;;;;;;;;;;6151077;23;20021;-54
2022/08/24 11:24:50;;;;;;;6.40;2.20;;;;;;;;;;6150631;23;20028;-56
2022/08/24 11:27:39;;;;;;;7.00;1.90;;;;;;;;;;6149676;23;20546;-56
2022/08/24 11:30:37;;;;;;;13.65;2.50;;;;;;;;;;6151307;23;20025;-53
2022/08/24 11:33:26;;;;;;;6.95;2.03;;;;;;;;;;6150070;23;20057;-55
2022/08/24 11:36:22;;;;;;;9.63;2.28;;;;;;;;;;6150059;23;20380;-51
2022/08/24 11:39:27;;;;;;;3.42;1.77;;;;;;;;;;6150407;23;20502;-60
2022/08/24 11:42:41;;;;;;;5.45;1.95;;;;;;;;;;6151451;23;20053;-66
2022/08/24 11:45:50;;;;;;;5.43;2.00;;;;;;;;;;6149358;23;20025;-66
2022/08/24 11:49:10;;;;;;;4.72;1.83;;;;;;;;;;6150143;23;20028;-65
2022/08/24 11:52:07;;;;;;;5.53;2.13;;;;;;;;;;6148835;23;20036;-66
2022/08/24 11:55:04;;;;;;;7.40;1.95;;;;;;;;;;6149827;23;20467;-66
2022/08/24 11:57:52;;;;;;;7.75;2.30;;;;;;;;;;6148573;23;20542;-54
2022/08/24 12:00:47;;;;;;;9.02;2.10;;;;;;;;;;6151542;23;20048;-57
2022/08/24 12:04:00;;;;;;;8.52;2.33;;;;;;;;;;6150111;23;20021;-54
2022/08/24 12:06:57;;;;;;;4.53;2.00;;;;;;;;;;6128778;23;20049;-55
2022/08/24 12:10:08;;;;;;;5.93;2.00;;;;;;;;;;6149620;23;20076;-56
2022/08/24 12:13:05;;;;;;;5.55;1.63;;;;;;;;;;6150814;23;20034;-55
2022/08/24 12:16:16;;;;;;;4.82;1.80;;;;;;;;;;6150352;23;20029;-66
2022/08/24 12:19:18;;;;;;;6.00;2.35;;;;;;;;;;6149795;23;20036;-53
2022/08/24 12:22:07;;;;;;;5.80;2.00;;;;;;;;;;6149696;23;20045;-60
2022/08/24 12:26:00;;;;;;;5.72;2.00;;;;;;;;;;6149358;23;20022;-58
2022/08/24 12:27:52;;;;;;;6.72;1.95;;;;;;;;;;6150583;23;20033;-59
2022/08/24 12:30:45;;;;;;;6.13;1.90;;;;;;;;;;6149509;23;20022;-58
2022/08/24 12:33:35;;;;;;;4.00;1.83;;;;;;;;;;6149891;23;20025;-58
2022/08/24 12:36:38;;;;;;;5.47;1.88;;;;;;;;;;6150751;23;20359;-60
2022/08/24 12:39:27;;;;;;;4.40;1.80;;;;;;;;;;6148841;23;20056;-65
2022/08/24 12:42:24;;;;;;;4.05;1.67;;;;;;;;;;6148971;23;20463;-65
2022/08/24 12:45:18;;;;;;;5.45;2.00;;;;;;;;;;6150530;23;20100;-65
2022/08/24 12:48:23;;;;;;;4.18;1.80;;;;;;;;;;6091215;23;20030;-65
2022/08/24 12:51:18;;;;;;;4.05;1.95;;;;;;;;;;6090508;23;20026;-65
2022/08/24 12:54:11;;;;;;;8.20;2.38;;;;;;;;;;6090888;23;20026;-51
2022/08/24 12:56:59;;;;;;;5.55;2.05;;;;;;;;;;6089860;23;20050;-46
2022/08/24 12:59:55;;;;;;;6.05;2.45;;;;;;;;;;6090998;23;20077;-52
2022/08/24 13:02:44;;;;;;;7.18;1.85;;;;;;;;;;6091526;23;20034;-50
2022/08/24 13:05:38;;;;;;;8.65;1.95;;;;;;;;;;6091268;23;20023;-53
2022/08/24 13:08:36;;;;;;;3.47;1.65;;;;;;;;;;6091203;23;20062;-54
2022/08/24 13:11:32;;;;;;;5.72;1.88;;;;;;;;;;6090605;23;20461;-53
2022/08/24 13:14:23;;;;;;;5.68;1.92;;;;;;;;;;6091542;23;20026;-58
2022/08/24 13:17:39;;;;;;;4.63;2.20;;;;;;;;;;6089719;23;20029;-65
2022/08/24 13:20:49;;;;;;;6.63;1.80;;;;;;;;;;6091606;23;20097;-66
2022/08/24 13:23:42;;;;;;;4.57;1.90;;;;;;;;;;6091820;23;20031;-65
2022/08/24 13:26:31;;;;;;;3.65;1.77;;;;;;;;;;6090751;23;20026;-65
2022/08/24 13:29:28;;;;;;;5.32;2.13;;;;;;;;;;6091336;23;20022;-65
2022/08/24 13:32:20;;;;;;;4.50;1.88;;;;;;;;;;6091130;23;20023;-59
2022/08/24 13:35:35;;;;;;;6.60;1.83;;;;;;;;;;6090086;23;20539;-58
2022/08/24 13:38:34;;;;;;;5.97;2.17;;;;;;;;;;6090353;23;20030;-51
2022/08/24 13:41:31;;;;;;;5.10;2.17;;;;;;;;;;6091942;23;20023;-55
2022/08/24 13:44:24;;;;;;;3.95;1.90;;;;;;;;;;6091585;23;20397;-53
2022/08/24 13:47:24;;;;;;;6.50;1.98;;;;;;;;;;6129629;23;20025;-55
2022/08/24 13:50:37;;;;;;;8.23;2.10;;;;;;;;;;6149136;23;20029;-53
2022/08/24 13:53:33;;;;;;;8.85;2.20;;;;;;;;;;6149395;23;20049;-59
2022/08/24 13:56:24;;;;;;;5.88;2.00;;;;;;;;;;6149115;23;20022;-55
2022/08/24 13:59:45;;;;;;;6.20;2.30;;;;;;;;;;6149564;23;20464;-56
2022/08/24 14:02:38;;;;;;;4.07;2.20;;;;;;;;;;6150143;23;20420;-55
2022/08/24 14:05:37;;;;;;;6.72;2.00;;;;;;;;;;6148910;23;20029;-53
2022/08/24 14:08:43;;;;;;;5.75;2.20;;;;;;;;;;6148975;23;20026;-54
2022/08/24 14:11:47;;;;;;;5.18;2.28;;;;;;;;;;6149601;23;20027;-58
2022/08/24 14:14:49;;;;;;;4.00;1.83;;;;;;;;;;6149614;23;20053;-54
2022/08/24 14:18:01;;;;;;;4.68;2.08;;;;;;;;;;6150239;23;20021;-56
2022/08/24 14:20:55;;;;;;;6.88;2.13;;;;;;;;;;6150237;23;20029;-51
2022/08/24 14:24:08;;;;;;;5.45;2.30;;;;;;;;;;6149134;23;20435;-56
2022/08/24 14:27:07;;;;;;;5.30;2.13;;;;;;;;;;6149894;23;20017;-53
2022/08/24 14:30:24;;;;;;;6.07;1.98;;;;;;;;;;6149309;23;20029;-58
2022/08/24 14:33:11;;;;;;;10.07;2.13;;;;;;;;;;6148777;23;20549;-56
2022/08/24 14:36:12;;;;;;;5.50;2.15;;;;;;;;;;6148735;23;20036;-57
2022/08/24 14:39:03;;;;;;;4.38;1.90;;;;;;;;;;6150030;23;20026;-57
2022/08/24 14:42:03;;;;;;;5.78;2.40;;;;;;;;;;6152244;23;20483;-57
2022/08/24 14:45:04;;;;;;;7.93;2.33;;;;;;;;;;6152025;23;20479;-57
2022/08/24 14:48:16;;;;;;;6.35;2.00;;;;;;;;;;6149469;23;20021;-55
2022/08/24 14:51:06;;;;;;;3.80;1.80;;;;;;;;;;6150989;23;20533;-51
2022/08/24 14:54:11;;;;;;;7.60;1.73;;;;;;;;;;6151892;23;20053;-58
2022/08/24 14:57:02;;;;;;;6.40;2.05;;;;;;;;;;6151660;23;20363;-54
2022/08/24 15:00:04;;;;;;;6.07;2.05;;;;;;;;;;6150881;23;20052;-58
2022/08/24 15:02:50;;;;;;;5.80;1.95;;;;;;;;;;6152073;23;20021;-56
2022/08/24 15:05:59;;;;;;;5.97;2.22;;;;;;;;;;6151508;23;20026;-55
2022/08/24 15:09:04;;;;;;;5.63;2.10;;;;;;;;;;6151634;23;20033;-56
2022/08/24 15:12:10;;;;;;;7.80;2.50;;;;;;;;;;6152479;23;20347;-53
2022/08/24 15:15:05;;;;;;;5.65;1.95;;;;;;;;;;6150289;23;20084;-50
2022/08/24 15:18:23;;;;;;;4.85;2.10;;;;;;;;;;6151298;23;20026;-49
2022/08/24 15:21:17;;;;;;;5.80;1.90;;;;;;;;;;6151563;23;20064;-51
2022/08/24 15:24:15;;;;;;;9.57;2.03;;;;;;;;;;6151898;23;20499;-50
2022/08/24 15:27:12;;;;;;;5.63;2.15;;;;;;;;;;6149779;23;20060;-60
2022/08/24 15:30:17;;;;;;;3.25;1.67;;;;;;;;;;6149739;23;20021;-54
2022/08/24 15:33:13;;;;;;;5.22;1.70;;;;;;;;;;6151245;23;20029;-54
2022/08/24 15:36:13;;;;;;;6.05;1.92;;;;;;;;;;6151794;23;20026;-52
2022/08/24 15:39:02;;;;;;;6.70;2.10;;;;;;;;;;6151733;23;20030;-55
2022/08/24 15:41:55;;;;;;;5.63;1.73;;;;;;;;;;6151224;23;20040;-55
2022/08/24 15:44:44;;;;;;;15.18;2.13;;;;;;;;;;6150575;23;20482;-56
2022/08/24 15:47:45;;;;;;;5.22;2.13;;;;;;;;;;6149660;23;20025;-55
2022/08/24 15:50:39;;;;;;;6.32;1.98;;;;;;;;;;6151055;23;20030;-63
2022/08/24 15:53:32;;;;;;;3.90;1.85;;;;;;;;;;6151695;23;20054;-64
2022/08/24 15:56:20;;;;;;;5.80;1.90;;;;;;;;;;6151227;23;20022;-63
2022/08/24 15:59:24;;;;;;;8.18;1.95;;;;;;;;;;6151025;23;20514;-63
2022/08/24 16:02:32;;;;;;;7.90;2.08;;;;;;;;;;6150395;23;20038;-63
2022/08/24 16:05:26;;;;;;;4.68;2.20;;;;;;;;;;6151790;23;20031;-53
2022/08/24 16:08:17;;;;;;;7.55;2.13;;;;;;;;;;6151548;23;20032;-56
2022/08/24 16:11:26;;;;;;;5.38;2.05;;;;;;;;;;6151204;23;20088;-54
2022/08/24 16:14:30;;;;;;;11.23;2.17;;;;;;;;;;6149591;23;20056;-53
2022/08/24 16:17:25;;;;;;;5.38;1.90;;;;;;;;;;6146367;23;20529;-53
2022/08/24 16:19:56;;;;;;;7.10;2.22;;;;;;;;;;6147295;23;20685;-53
2022/08/24 16:22:32;;;;;;;11.85;2.05;;;;;;;;;;6144686;23;20026;-52
2022/08/24 16:25:16;;;;;;;10.50;2.13;;;;;;;;;;6145865;23;20029;-54
2022/08/24 16:28:22;;;;;;;3.90;2.00;;;;;;;;;;6147301;23;20087;-52
2022/08/24 16:31:09;;;;;;;5.53;2.33;;;;;;;;;;6149678;23;20506;-49
2022/08/24 16:34:15;;;;;;;7.65;1.88;;;;;;;;;;6149855;23;20049;-53
2022/08/24 16:37:03;;;;;;;5.72;1.85;;;;;;;;;;6147799;23;20060;-53
2022/08/24 16:39:56;;;;;;;6.43;1.73;;;;;;;;;;6149292;23;20060;-52
2022/08/24 16:42:44;;;;;;;7.40;2.03;;;;;;;;;;6149927;23;20025;-57
2022/08/24 16:45:38;;;;;;;11.20;2.10;;;;;;;;;;6150964;23;20503;-57
2022/08/24 16:48:33;;;;;;;4.05;1.80;;;;;;;;;;6148569;23;20033;-62
2022/08/24 16:51:27;;;;;;;3.95;1.98;;;;;;;;;;6149312;23;20060;-63
2022/08/24 16:54:14;;;;;;;5.20;2.03;;;;;;;;;;6149783;23;20029;-64
2022/08/24 16:57:37;;;;;;;7.72;2.15;;;;;;;;;;6149684;23;20022;-63
2022/08/24 17:00:32;;;;;;;5.63;2.33;;;;;;;;;;6150663;23;20053;-63
2022/08/24 17:03:26;;;;;;;3.80;1.90;;;;;;;;;;6149039;23;20024;-63
2022/08/24 17:06:14;;;;;;;5.30;1.90;;;;;;;;;;6148242;23;20757;-57
2022/08/24 17:09:07;;;;;;;11.68;2.47;;;;;;;;;;6150221;23;20032;-57
2022/08/24 17:11:54;;;;;;;8.00;2.13;;;;;;;;;;6149894;23;20033;-54
2022/08/24 17:14:48;;;;;;;9.77;2.10;;;;;;;;;;6150142;23;20021;-58
2022/08/24 17:17:36;;;;;;;9.57;1.95;;;;;;;;;;6150201;23;20478;-57
2022/08/24 17:20:29;;;;;;;6.20;2.15;;;;;;;;;;6148693;23;20045;-56
2022/08/24 17:23:17;;;;;;;7.93;2.00;;;;;;;;;;6150564;23;20034;-58
2022/08/24 17:26:12;;;;;;;6.90;2.10;;;;;;;;;;6149405;23;20084;-59
2022/08/24 17:29:01;;;;;;;5.45;2.28;;;;;;;;;;6142761;23;20089;-59
2022/08/24 17:31:58;;;;;;;7.32;2.38;;;;;;;;;;6147893;23;20049;-58
2022/08/24 17:34:43;;;;;;;11.48;2.40;;;;;;;;;;6146969;23;20021;-56
2022/08/24 17:37:37;;;;;;;5.65;2.10;;;;;;;;;;6149023;23;20076;-57
2022/08/24 17:40:24;;;;;;;6.72;2.33;;;;;;;;;;6149624;23;20455;-52